createdAt,value
2023-08-18T04:01:53.793Z,12.13
2023-08-18T04:06:06.608Z,9.05
2023-08-18T04:10:18.193Z,9.98
2023-08-18T04:14:29.785Z,13.75
2023-08-18T04:18:42.460Z,9.50
2023-08-18T04:22:54.046Z,10.85
2023-08-18T04:27:05.692Z,9.98
2023-08-18T04:31:17.507Z,10.95
2023-08-18T04:35:34.725Z,11.13
2023-08-18T04:39:46.919Z,9.50
2023-08-18T04:44:00.155Z,11.85
2023-08-18T04:48:14.534Z,8.40
2023-08-18T04:52:26.352Z,9.73
2023-08-18T04:56:38.797Z,10.90
2023-08-18T05:00:51.414Z,8.90
2023-08-18T05:05:04.379Z,7.32
2023-08-18T05:09:16.064Z,8.68
2023-08-18T05:13:27.640Z,9.10
2023-08-18T05:17:39.258Z,12.18
2023-08-18T05:21:50.830Z,10.45
2023-08-18T05:26:02.795Z,11.63
2023-08-18T05:30:14.742Z,12.73
2023-08-18T05:34:26.503Z,11.80
2023-08-18T05:38:38.081Z,13.80
2023-08-18T05:42:50.127Z,12.88
2023-08-18T05:47:01.662Z,12.68
2023-08-18T05:51:13.205Z,11.55
2023-08-18T05:55:25.228Z,11.32
2023-08-18T05:59:37.106Z,14.45
2023-08-18T06:03:48.686Z,11.57
2023-08-18T06:08:00.261Z,11.38
2023-08-18T06:12:11.863Z,14.23
2023-08-18T06:16:23.465Z,12.30
2023-08-18T06:20:35.148Z,13.15
2023-08-18T06:24:46.746Z,12.77
2023-08-18T06:28:58.285Z,12.15
2023-08-18T06:33:09.910Z,11.05
2023-08-18T06:37:21.516Z,11.45
2023-08-18T06:41:33.074Z,10.23
2023-08-18T06:45:44.625Z,11.02
2023-08-18T06:49:56.185Z,11.57
2023-08-18T06:54:07.810Z,13.45
2023-08-18T06:58:19.827Z,10.10
2023-08-18T07:02:31.618Z,10.95
2023-08-18T07:06:45.549Z,10.32
2023-08-18T07:10:57.412Z,8.20
2023-08-18T07:15:09.204Z,8.40
2023-08-18T07:19:20.772Z,7.75
2023-08-18T07:23:32.352Z,8.77
2023-08-18T07:27:44.080Z,9.63
2023-08-18T07:31:56.493Z,7.35
2023-08-18T07:36:08.750Z,8.70
2023-08-18T07:40:20.555Z,6.88
2023-08-18T07:44:32.122Z,11.63
2023-08-18T07:48:45.895Z,7.75
2023-08-18T07:52:57.470Z,7.55
2023-08-18T07:57:09.088Z,8.45
2023-08-18T08:01:20.767Z,8.15
2023-08-18T08:05:33.978Z,9.48
2023-08-18T08:09:45.610Z,7.55
2023-08-18T08:13:57.176Z,7.45
2023-08-18T08:18:12.289Z,8.23
2023-08-18T08:22:25.049Z,9.93
2023-08-18T08:26:36.613Z,8.95
2023-08-18T08:30:48.331Z,8.50
2023-08-18T08:34:59.880Z,9.52
2023-08-18T08:39:11.489Z,9.15
2023-08-18T08:43:23.216Z,11.00
2023-08-18T08:47:35.059Z,9.82
2023-08-18T08:51:49.625Z,10.38
2023-08-18T08:56:09.195Z,9.90
2023-08-18T09:00:21.578Z,9.57
2023-08-18T09:04:33.170Z,8.93
2023-08-18T09:08:44.875Z,11.30
2023-08-18T09:12:56.470Z,8.73
2023-08-18T09:17:08.489Z,8.90
2023-08-18T09:21:20.352Z,9.98
2023-08-18T09:25:34.502Z,9.77
2023-08-18T09:29:46.066Z,8.57
2023-08-18T09:33:57.995Z,10.90
2023-08-18T09:38:14.448Z,10.05
2023-08-18T09:42:26.381Z,9.18
2023-08-18T09:46:38.793Z,9.63
2023-08-18T09:50:54.475Z,10.05
2023-08-18T09:55:17.458Z,9.15
2023-08-18T09:59:35.526Z,10.32
2023-08-18T10:03:48.040Z,11.18
2023-08-18T10:08:00.406Z,8.70
2023-08-18T10:12:12.365Z,9.13
2023-08-18T10:16:24.192Z,9.57
2023-08-18T10:20:36.300Z,10.10
2023-08-18T10:24:49.020Z,9.68
2023-08-18T10:29:26.271Z,8.45
2023-08-18T10:33:50.164Z,9.07
2023-08-18T10:38:05.636Z,8.18
2023-08-18T10:42:17.390Z,7.80
2023-08-18T10:46:38.209Z,9.68
2023-08-18T10:50:49.866Z,7.47
2023-08-18T10:55:01.505Z,10.05
2023-08-18T10:59:13.087Z,9.85
2023-08-18T11:03:26.730Z,9.75
2023-08-18T11:07:38.375Z,7.53
2023-08-18T11:11:49.988Z,10.55
2023-08-18T11:16:01.718Z,7.57
2023-08-18T11:20:14.496Z,7.97
2023-08-18T11:24:26.802Z,8.80
2023-08-18T11:28:38.378Z,7.07
2023-08-18T11:32:54.655Z,7.50
2023-08-18T11:37:11.464Z,7.10
2023-08-18T11:41:23.564Z,7.90
2023-08-18T11:45:35.156Z,6.40
2023-08-18T11:49:46.770Z,6.30
2023-08-18T11:53:58.437Z,9.05
2023-08-18T11:58:14.197Z,8.55
2023-08-18T12:02:27.896Z,7.30
2023-08-18T12:06:40.295Z,6.82
2023-08-18T12:10:54.063Z,8.18
2023-08-18T12:15:06.194Z,7.65
2023-08-18T12:19:20.949Z,6.13
2023-08-18T12:23:32.957Z,6.50
2023-08-18T12:27:48.723Z,7.47
2023-08-18T12:32:00.337Z,6.25
2023-08-18T12:36:12.072Z,6.63
2023-08-18T12:40:23.658Z,7.97
2023-08-18T12:44:36.665Z,7.75
2023-08-18T12:48:50.160Z,7.20
2023-08-18T12:53:01.788Z,6.93
2023-08-18T12:57:13.392Z,6.28
2023-08-18T13:01:24.946Z,6.72
2023-08-18T13:05:36.527Z,13.75
2023-08-18T13:09:48.119Z,7.65
2023-08-18T13:14:03.871Z,7.13
2023-08-18T13:18:15.458Z,5.70
2023-08-18T13:22:27.102Z,5.55
2023-08-18T13:26:40.515Z,9.77
2023-08-18T13:30:52.178Z,7.32
2023-08-18T13:35:04.733Z,7.53
2023-08-18T13:39:16.991Z,9.35
2023-08-18T13:43:28.887Z,8.05
2023-08-18T13:47:40.574Z,7.28
2023-08-18T13:51:52.137Z,4.88
2023-08-18T13:56:06.439Z,6.40
2023-08-18T14:00:18.367Z,7.68
2023-08-18T14:04:30.065Z,5.70
2023-08-18T14:08:41.835Z,6.15
2023-08-18T14:12:53.387Z,10.38
2023-08-18T14:17:08.528Z,11.20
2023-08-18T14:21:20.383Z,5.45
2023-08-18T14:25:33.332Z,6.50
2023-08-18T14:29:46.586Z,5.10
2023-08-18T14:33:58.209Z,6.95
2023-08-18T14:38:09.789Z,5.75
2023-08-18T14:42:21.443Z,4.47
2023-08-18T14:46:32.988Z,5.60
2023-08-18T14:50:45.057Z,4.90
2023-08-18T14:54:56.656Z,6.07
2023-08-18T14:59:08.212Z,6.10
2023-08-18T15:03:19.897Z,7.97
2023-08-18T15:07:31.651Z,5.30
2023-08-18T15:11:43.422Z,7.13
2023-08-18T15:15:55.094Z,7.03
2023-08-18T15:20:07.694Z,6.88
2023-08-18T15:24:21.347Z,5.90
2023-08-18T15:28:32.940Z,4.63
2023-08-18T15:32:44.563Z,6.60
2023-08-18T15:36:56.251Z,6.13
2023-08-18T15:41:08.204Z,4.85
2023-08-18T15:45:19.813Z,6.35
2023-08-18T15:49:31.434Z,7.05
2023-08-18T15:53:43.185Z,5.57
2023-08-18T15:57:55.959Z,6.93
2023-08-18T16:02:07.606Z,4.35
2023-08-18T16:06:19.241Z,6.30
2023-08-18T16:10:30.852Z,4.30
2023-08-18T16:18:57.627Z,5.32
2023-08-18T16:23:09.165Z,4.93
2023-08-18T16:27:20.789Z,5.82
2023-08-18T16:31:32.405Z,5.90
2023-08-18T16:35:45.250Z,5.03
2023-08-18T16:39:58.610Z,5.82
2023-08-18T16:44:10.218Z,7.65
2023-08-18T16:48:21.940Z,6.80
2023-08-18T16:52:33.618Z,6.93
2023-08-18T16:56:46.537Z,5.75
2023-08-18T17:00:58.166Z,6.57
2023-08-18T17:05:10.126Z,7.13
2023-08-18T17:09:22.785Z,5.55
2023-08-18T17:13:34.347Z,5.13
2023-08-18T17:17:45.982Z,4.35
2023-08-18T17:21:57.564Z,5.72
2023-08-18T17:26:09.140Z,12.98
2023-08-18T17:30:20.686Z,7.55
2023-08-18T17:34:32.252Z,10.23
2023-08-18T17:38:43.822Z,6.93
2023-08-18T17:42:57.233Z,6.25
2023-08-18T17:47:08.847Z,5.50
2023-08-18T17:51:20.398Z,8.20
2023-08-18T17:55:35.923Z,9.98
2023-08-18T17:59:48.458Z,9.88
2023-08-18T18:04:00.027Z,8.55
2023-08-18T18:08:13.180Z,6.38
2023-08-18T18:12:24.760Z,9.00
2023-08-18T18:16:36.484Z,11.25
2023-08-18T18:20:48.047Z,10.63
2023-08-18T18:24:59.877Z,8.85
2023-08-18T18:29:12.519Z,11.63
2023-08-18T18:33:24.081Z,9.75
2023-08-18T18:37:36.076Z,8.38
2023-08-18T18:41:47.677Z,8.63
2023-08-18T18:45:59.771Z,10.52
2023-08-18T18:50:11.360Z,10.63
2023-08-18T18:54:22.976Z,9.25
2023-08-18T18:58:34.531Z,14.27
2023-08-18T19:02:46.335Z,11.18
2023-08-18T19:06:58.053Z,9.27
2023-08-18T19:11:09.600Z,10.38
2023-08-18T19:15:21.153Z,8.93
2023-08-18T19:19:32.732Z,8.77
2023-08-18T19:23:46.138Z,8.25
2023-08-18T19:27:58.949Z,9.85
2023-08-18T19:32:11.077Z,10.10
2023-08-18T19:36:22.689Z,7.55
2023-08-18T19:40:37.887Z,12.60
2023-08-18T19:44:49.485Z,9.38
2023-08-18T19:49:01.021Z,10.57
2023-08-18T19:53:12.576Z,12.50
2023-08-18T19:57:31.523Z,9.82
2023-08-18T20:01:43.275Z,7.82
2023-08-18T20:05:54.860Z,7.90
2023-08-18T20:10:07.110Z,8.63
2023-08-18T20:14:18.753Z,7.43
2023-08-18T20:18:30.338Z,9.98
2023-08-18T20:22:42.694Z,10.93
2023-08-18T20:26:54.302Z,8.90
2023-08-18T20:31:07.449Z,12.27
2023-08-18T20:35:21.033Z,11.13
2023-08-18T20:39:32.699Z,13.07
2023-08-18T20:43:44.351Z,9.05
2023-08-18T20:47:55.972Z,11.10
2023-08-18T20:52:07.588Z,8.18
2023-08-18T20:56:19.150Z,9.57
2023-08-18T21:00:30.756Z,14.07
2023-08-18T21:04:42.317Z,9.95
2023-08-18T21:08:53.932Z,10.75
2023-08-18T21:13:05.538Z,13.65
2023-08-18T21:17:17.582Z,11.10
2023-08-18T21:21:29.125Z,12.02
2023-08-18T21:25:41.541Z,11.07
2023-08-18T21:29:53.123Z,14.18
